createdAt,value
2023-01-04T00:01:15.115Z,3.60
2023-01-04T00:05:59.659Z,3.40
2023-01-04T00:10:44.697Z,3.20
2023-01-04T00:15:32.651Z,3.20
2023-01-04T00:20:24.867Z,3.10
2023-01-04T00:25:10.549Z,2.90
2023-01-04T00:29:56.832Z,2.90
2023-01-04T00:34:43.298Z,2.90
2023-01-04T00:39:32.485Z,3.20
2023-01-04T00:44:22.374Z,3.30
2023-01-04T00:49:09.275Z,3.30
2023-01-04T00:53:55.292Z,3.20
2023-01-04T00:58:42.848Z,3.10
2023-01-04T01:03:36.541Z,3.00
2023-01-04T01:08:27.624Z,3.00
2023-01-04T01:13:10.931Z,3.00
2023-01-04T01:17:57.935Z,2.90
2023-01-04T01:22:44.862Z,2.80
2023-01-04T01:27:34.343Z,3.00
2023-01-04T01:32:41.770Z,3.10
2023-01-04T01:37:35.341Z,3.00
2023-01-04T01:42:26.028Z,3.00
2023-01-04T01:47:18.639Z,3.00
2023-01-04T01:52:06.190Z,3.10
2023-01-04T01:57:02.826Z,3.00
2023-01-04T02:01:46.619Z,2.80
2023-01-04T02:06:33.958Z,2.70
2023-01-04T02:11:19.803Z,2.50
2023-01-04T02:16:15.185Z,2.30
2023-01-04T02:21:03.460Z,2.20
2023-01-04T02:26:23.269Z,2.30
2023-01-04T02:31:24.689Z,2.40
2023-01-04T02:36:17.795Z,2.50
2023-01-04T02:41:16.118Z,2.50
2023-01-04T02:46:06.000Z,2.30
2023-01-04T02:50:56.244Z,2.30
2023-01-04T02:55:49.495Z,2.10
2023-01-04T03:01:05.522Z,2.00
2023-01-04T03:06:18.227Z,2.10
2023-01-04T03:11:27.507Z,2.20
2023-01-04T03:16:19.276Z,2.40
2023-01-04T03:21:13.307Z,2.40
2023-01-04T03:26:20.391Z,2.50
2023-01-04T03:31:28.695Z,2.50
2023-01-04T03:36:22.991Z,2.50
2023-01-04T03:41:31.511Z,2.50
2023-01-04T03:46:38.226Z,2.40
2023-01-04T03:51:31.138Z,2.30
2023-01-04T03:56:16.744Z,2.20
2023-01-04T04:01:11.833Z,2.30
2023-01-04T04:06:15.480Z,2.30
2023-01-04T04:11:22.005Z,2.30
2023-01-04T04:16:08.764Z,2.60
2023-01-04T04:20:59.339Z,2.60
2023-01-04T04:25:42.670Z,2.60
2023-01-04T04:30:32.513Z,2.40
2023-01-04T04:35:20.841Z,2.30
2023-01-04T04:40:10.647Z,2.20
2023-01-04T04:44:57.268Z,2.40
2023-01-04T04:49:44.772Z,2.40
2023-01-04T04:54:53.074Z,2.60
2023-01-04T05:00:05.869Z,2.80
2023-01-04T05:05:00.597Z,2.90
2023-01-04T05:09:48.135Z,3.10
2023-01-04T05:14:31.542Z,3.20
2023-01-04T05:19:15.093Z,3.30
2023-01-04T05:24:05.233Z,3.40
2023-01-04T05:28:59.757Z,3.70
2023-01-04T05:34:26.165Z,4.00
2023-01-04T05:39:21.445Z,4.20
2023-01-04T05:44:12.775Z,4.40
2023-01-04T05:49:14.786Z,4.50
2023-01-04T05:54:01.361Z,4.70
2023-01-04T05:58:48.676Z,4.70
2023-01-04T06:03:38.578Z,4.70
2023-01-04T06:08:41.234Z,4.50
2023-01-04T06:13:26.461Z,4.60
2023-01-04T06:18:18.506Z,4.70
2023-01-04T06:23:31.127Z,5.10
2023-01-04T06:29:01.500Z,5.40
2023-01-04T06:34:03.422Z,5.60
2023-01-04T06:39:40.612Z,5.80
2023-01-04T06:44:44.648Z,6.00
2023-01-04T06:50:04.272Z,6.10
2023-01-04T06:55:09.566Z,6.20
2023-01-04T06:59:53.177Z,6.30
2023-01-04T07:04:41.811Z,6.40
2023-01-04T07:09:55.971Z,6.30
2023-01-04T07:15:39.690Z,6.40
2023-01-04T07:20:25.340Z,6.40
2023-01-04T07:25:17.404Z,6.40
2023-01-04T07:30:29.716Z,6.40
2023-01-04T07:35:16.886Z,6.40
2023-01-04T07:40:07.441Z,6.50
2023-01-04T07:44:56.866Z,6.60
2023-01-04T07:49:40.161Z,6.70
2023-01-04T07:54:25.975Z,6.80
2023-01-04T07:59:22.184Z,7.10
2023-01-04T08:04:05.988Z,7.10
2023-01-04T08:08:57.026Z,7.20
2023-01-04T08:13:42.463Z,7.20
2023-01-04T08:18:30.172Z,7.30
2023-01-04T08:23:16.547Z,7.30
2023-01-04T08:28:05.715Z,7.30
2023-01-04T08:32:57.287Z,7.30
2023-01-04T08:37:42.539Z,7.20
2023-01-04T08:42:47.618Z,7.30
2023-01-04T08:47:49.838Z,7.30
2023-01-04T08:53:12.194Z,7.30
2023-01-04T08:58:31.106Z,7.30
2023-01-04T09:03:39.432Z,7.40
2023-01-04T09:08:54.334Z,7.30
2023-01-04T09:13:41.338Z,7.20
2023-01-04T09:18:32.482Z,7.00
2023-01-04T09:23:19.384Z,7.00
2023-01-04T09:28:07.671Z,7.00
2023-01-04T09:32:54.302Z,7.00
2023-01-04T09:37:47.117Z,7.00
2023-01-04T09:42:37.698Z,7.00
2023-01-04T09:47:40.366Z,7.00
2023-01-04T09:52:38.322Z,7.00
2023-01-04T09:57:32.194Z,7.00
2023-01-04T10:02:28.628Z,7.10
2023-01-04T10:07:27.914Z,7.30
2023-01-04T10:12:59.792Z,7.30
2023-01-04T10:19:36.768Z,7.40
2023-01-04T10:23:33.031Z,7.20
2023-01-04T10:28:35.981Z,7.20
2023-01-04T10:33:31.020Z,7.00
2023-01-04T10:38:28.629Z,7.00
2023-01-04T10:43:24.822Z,7.00
2023-01-04T10:48:18.411Z,6.90
2023-01-04T10:53:09.105Z,6.80
2023-01-04T10:58:12.176Z,6.80
2023-01-04T11:03:08.404Z,6.80
2023-01-04T11:07:56.861Z,6.80
2023-01-04T11:12:40.298Z,6.90
2023-01-04T11:17:27.880Z,6.90
2023-01-04T11:23:08.643Z,7.10
2023-01-04T11:28:28.689Z,7.20
2023-01-04T11:33:22.914Z,7.30
2023-01-04T11:38:16.778Z,7.40
2023-01-04T11:43:21.634Z,7.50
2023-01-04T11:48:12.558Z,7.50
2023-01-04T11:53:27.372Z,7.50
2023-01-04T11:58:13.506Z,7.50
2023-01-04T12:03:39.596Z,7.60
2023-01-04T12:08:41.695Z,7.50
2023-01-04T12:13:54.977Z,7.60
2023-01-04T12:18:53.596Z,7.50
2023-01-04T12:30:02.437Z,7.60
2023-01-04T12:34:48.158Z,7.70
2023-01-04T12:39:48.647Z,7.70
2023-01-04T12:45:11.976Z,7.80
2023-01-04T12:50:02.951Z,7.70
2023-01-04T12:54:50.831Z,7.70
2023-01-04T12:59:37.461Z,7.60
2023-01-04T13:04:44.427Z,7.60
2023-01-04T13:09:48.462Z,7.60
2023-01-04T13:15:05.228Z,7.70
2023-01-04T13:20:36.039Z,7.80
2023-01-04T13:25:28.486Z,7.90
2023-01-04T13:30:37.675Z,8.00
2023-01-04T13:35:39.432Z,8.30
2023-01-04T13:40:27.295Z,8.40
2023-01-04T13:45:41.553Z,8.50
2023-01-04T13:50:35.931Z,8.60
2023-01-04T13:55:24.939Z,8.70
2023-01-04T14:00:18.316Z,8.70
2023-01-04T14:05:25.640Z,8.70
2023-01-04T14:10:20.287Z,8.70
2023-01-04T14:15:16.793Z,8.70
2023-01-04T14:20:22.836Z,8.70
2023-01-04T14:25:48.839Z,8.70
2023-01-04T14:30:34.245Z,8.60
2023-01-04T14:35:18.888Z,8.70
2023-01-04T14:40:52.437Z,8.60
2023-01-04T14:45:44.799Z,8.50
2023-01-04T14:50:33.048Z,8.50
2023-01-04T14:55:23.610Z,8.60
2023-01-04T15:00:21.771Z,8.40
2023-01-04T15:05:14.315Z,8.50
2023-01-04T15:10:00.165Z,8.50
2023-01-04T15:15:03.353Z,8.50
2023-01-04T15:20:06.904Z,8.40
2023-01-04T15:25:39.469Z,8.20
2023-01-04T15:31:07.999Z,8.20
2023-01-04T15:36:24.000Z,8.20
2023-01-04T15:41:40.390Z,8.30
2023-01-04T15:46:32.324Z,8.30
2023-01-04T15:51:20.061Z,8.30
2023-01-04T15:56:10.423Z,8.40
2023-01-04T16:01:01.245Z,8.40
2023-01-04T16:06:15.602Z,8.40
2023-01-04T16:11:09.696Z,8.50
2023-01-04T16:16:25.644Z,8.50
2023-01-04T16:21:15.339Z,8.50
2023-01-04T16:26:15.180Z,8.50
2023-01-04T16:31:05.075Z,8.50
2023-01-04T16:36:08.501Z,8.50
2023-01-04T16:41:29.611Z,8.60
2023-01-04T16:46:34.095Z,8.60
2023-01-04T16:51:23.037Z,8.80
2023-01-04T16:56:09.565Z,8.90
2023-01-04T17:01:00.851Z,9.00
2023-01-04T17:05:45.197Z,9.10
2023-01-04T17:10:35.062Z,9.10
2023-01-04T17:20:27.581Z,9.10
2023-01-04T17:25:24.243Z,9.10
2023-01-04T17:30:31.201Z,9.10
2023-01-04T17:35:21.916Z,9.10
2023-01-04T17:40:09.114Z,9.10
2023-01-04T17:45:00.153Z,9.10
2023-01-04T17:49:46.186Z,9.10
2023-01-04T17:54:31.866Z,9.20
2023-01-04T17:59:54.274Z,9.40
2023-01-04T18:04:42.519Z,9.50
2023-01-04T18:09:32.628Z,9.60
2023-01-04T18:15:23.344Z,9.70
2023-01-04T18:20:08.129Z,9.70
2023-01-04T18:24:58.602Z,9.70
2023-01-04T18:29:59.954Z,9.80
2023-01-04T18:34:50.173Z,9.80
2023-01-04T18:39:40.097Z,10.00
2023-01-04T18:44:40.985Z,10.10
2023-01-04T18:49:45.846Z,10.20
2023-01-04T18:54:45.485Z,10.20
2023-01-04T18:59:37.198Z,10.30
2023-01-04T19:04:38.739Z,10.40
2023-01-04T19:09:30.812Z,10.40
2023-01-04T19:14:17.836Z,10.50
2023-01-04T19:19:06.779Z,10.50
2023-01-04T19:23:52.920Z,10.50
2023-01-04T19:28:40.973Z,10.60
2023-01-04T19:33:46.393Z,10.60
2023-01-04T19:38:32.983Z,10.60
2023-01-04T19:43:23.607Z,10.50
2023-01-04T19:48:09.873Z,10.50
2023-01-04T19:52:59.290Z,10.40
2023-01-04T19:57:45.047Z,10.30
2023-01-04T20:02:37.080Z,10.20
2023-01-04T20:07:52.048Z,10.30
2023-01-04T20:17:48.072Z,10.30
2023-01-04T20:22:53.675Z,10.40
2023-01-04T20:27:57.025Z,10.40
2023-01-04T20:32:44.874Z,10.30
2023-01-04T20:37:31.584Z,10.30
2023-01-04T20:42:36.598Z,10.30
2023-01-04T20:47:24.267Z,10.20
2023-01-04T20:52:21.185Z,10.20
2023-01-04T20:57:33.465Z,10.10
2023-01-04T21:02:46.792Z,10.10
2023-01-04T21:07:38.668Z,10.00
2023-01-04T21:12:24.844Z,10.00
2023-01-04T21:17:10.859Z,10.10
2023-01-04T21:22:04.059Z,10.20
2023-01-04T21:26:52.571Z,10.20
2023-01-04T21:31:41.603Z,10.20
2023-01-04T21:36:41.703Z,10.10
2023-01-04T21:41:29.412Z,10.10
2023-01-04T21:46:18.141Z,10.00
2023-01-04T21:51:04.496Z,9.80
2023-01-04T21:56:10.931Z,9.80
2023-01-04T22:00:58.193Z,9.80
2023-01-04T22:05:45.893Z,10.00
2023-01-04T22:10:34.202Z,10.20
2023-01-04T22:15:20.671Z,10.30
2023-01-04T22:20:09.680Z,10.40
2023-01-04T22:24:55.322Z,10.50
2023-01-04T22:29:44.813Z,10.50
2023-01-04T22:34:31.770Z,10.50
2023-01-04T22:39:19.054Z,10.40
2023-01-04T22:44:08.904Z,10.40
2023-01-04T22:49:08.039Z,10.50
2023-01-04T22:54:02.729Z,10.50
2023-01-04T22:58:55.014Z,10.60
2023-01-04T23:03:52.455Z,10.50
2023-01-04T23:08:41.416Z,10.50
2023-01-04T23:13:30.380Z,10.50
2023-01-04T23:18:16.471Z,10.50
2023-01-04T23:23:03.994Z,10.30
2023-01-04T23:27:52.571Z,10.10
2023-01-04T23:32:43.448Z,9.90
2023-01-04T23:37:27.992Z,9.80
2023-01-04T23:42:18.530Z,9.80
2023-01-04T23:47:08.261Z,9.80
2023-01-04T23:51:52.253Z,9.80
2023-01-04T23:56:42.372Z,9.90
